Portada
METAR-TAF:

METAR-TAF

Aeropuertos :

Aruba, Aruba

Aeropuerto Internacional Reina Beatrix

latitud: 12-30N, longitud: 070-01W, altitud: 18 m

Observación

El informe se hizo hace 1 hora y 1 minutos, a las 01:00 UTC
Viento 12 kt del este
Temperatura 28°C
Humedad 79%
Presión 1013 hPa
Visibilidad 10 km o más
Escasas nubes a una altura de 1800 ft

METAR: TNCA 280100Z 08012KT 9999 FEW018 28/24 Q1012 A2991 NOSIG

Hora: 22:01 (02:01 UTC)

Pronóstico

El informe se hizo hace 4 horas y 1 minutos, a las 22:00 UTC
Pronóstico válido del 28 a las 00 UTC al 28 a las 24 UTC
Viento 18 kt del este
Visibilidad 10 km o más
Nubes dispersas a una altura de 2000 ft

TAF: TNCA 272200Z 2800/2824 09018KT 9999 SCT020

Observaciones y pronósticos meteorológicos de más de 4000 aeropuertos (mensajes METAR y TAF).

Los puntos amarillos y rojos representan las estaciones disponibles.

Ponga el ratón en el punto deseado para ver el nombre de la estación.

Haga clic para ver las observaciones y los pronósticos meteorológicos.

Para cambiar el mapa : haga clic en los botones verdes con una cruz de color negro para hacer un zoom, en el botón verde con un guión para alejar o en las flechas verdes para mapas adyacentes.


METAR-TAF: